Time;durP1;ratioP1;P1;durP2;ratioP2;P2;SDS_P1;SDS_P2;PMS_P1;PMS_P2;Temp;Humidity;BMP_temperature;BMP_pressure;BME280_temperature;BME280_humidity;BME280_pressure;Samples;Min_cycle;Max_cycle;Signal;HPM_P1;HPM_P2
2022/04/18 00:01:54;;;;;;;19.47;10.40;;;11.60;47.80;;;;;;5075161;28;20035;-71
2022/04/18 00:04:20;;;;;;;19.17;11.50;;;11.60;47.90;;;;;;5075106;28;20032;-71
2022/04/18 00:06:46;;;;;;;18.90;11.37;;;11.60;48.00;;;;;;5058706;28;20036;-71
2022/04/18 00:09:12;;;;;;;20.83;11.60;;;11.60;48.00;;;;;;5072582;28;20028;-71
2022/04/18 00:11:37;;;;;;;19.97;12.13;;;11.60;48.10;;;;;;5072747;28;20051;-71
2022/04/18 00:14:04;;;;;;;19.93;11.53;;;11.50;48.30;;;;;;5072827;28;20357;-71
2022/04/18 00:16:29;;;;;;;19.33;12.50;;;11.50;48.40;;;;;;5071751;28;20052;-71
2022/04/18 00:18:55;;;;;;;18.80;12.20;;;11.40;48.70;;;;;;5093243;28;20553;-71
2022/04/18 00:21:21;;;;;;;17.37;11.23;;;11.40;48.70;;;;;;5090267;28;20075;-71
2022/04/18 00:23:47;;;;;;;20.37;12.40;;;11.30;48.80;;;;;;5096567;28;20059;-71
2022/04/18 00:26:13;;;;;;;19.20;11.57;;;11.30;49.00;;;;;;5096438;28;20409;-71
2022/04/18 00:28:39;;;;;;;16.70;11.57;;;11.20;49.20;;;;;;5096268;28;20051;-71
2022/04/18 00:31:04;;;;;;;18.80;11.73;;;11.20;49.90;;;;;;5078109;28;20034;-71
2022/04/18 00:33:31;;;;;;;18.63;12.57;;;11.20;49.60;;;;;;5096224;28;20099;-71
2022/04/18 00:35:56;;;;;;;19.80;11.87;;;11.10;49.60;;;;;;5064689;28;20056;-71
2022/04/18 00:38:22;;;;;;;20.20;12.77;;;11.10;49.80;;;;;;5077603;28;20519;-71
2022/04/18 00:40:48;;;;;;;20.30;13.20;;;11.10;50.00;;;;;;5096332;28;20032;-71
2022/04/18 00:43:14;;;;;;;20.60;12.27;;;11.00;50.20;;;;;;5078088;28;20108;-71
2022/04/18 00:45:40;;;;;;;20.03;12.00;;;11.00;50.40;;;;;;5096003;28;20028;-71
2022/04/18 00:48:06;;;;;;;19.03;11.47;;;10.90;50.50;;;;;;5094132;28;20064;-71
2022/04/18 00:50:34;;;;;;;20.70;12.17;;;10.90;50.80;;;;;;5060820;28;20389;-71
2022/04/18 00:53:02;;;;;;;20.60;12.03;;;10.90;50.80;;;;;;5075652;28;20106;-71
2022/04/18 00:55:28;;;;;;;19.03;13.07;;;10.80;50.90;;;;;;5057528;28;20508;-71
2022/04/18 00:57:55;;;;;;;18.70;11.70;;;10.80;51.10;;;;;;5075379;28;20549;-71
2022/04/18 01:00:21;;;;;;;20.67;13.47;;;10.80;51.30;;;;;;5075842;28;20036;-71
2022/04/18 01:02:48;;;;;;;19.47;12.27;;;10.80;51.50;;;;;;5075481;28;20024;-70
2022/04/18 01:05:14;;;;;;;17.10;12.03;;;10.70;51.50;;;;;;5058773;28;20029;-72
2022/04/18 01:07:39;;;;;;;22.17;12.20;;;10.70;51.50;;;;;;5075318;28;20055;-71
2022/04/18 01:10:07;;;;;;;20.00;12.00;;;10.70;51.70;;;;;;5075327;28;20036;-71
2022/04/18 01:12:33;;;;;;;21.83;12.50;;;10.70;52.00;;;;;;5075187;28;20035;-71
2022/04/18 01:14:59;;;;;;;21.03;11.93;;;10.60;52.00;;;;;;5057007;28;20037;-71
2022/04/18 01:17:25;;;;;;;18.47;12.07;;;10.60;52.10;;;;;;5057235;28;20028;-71
2022/04/18 01:19:51;;;;;;;18.97;12.50;;;10.60;52.40;;;;;;5083762;28;20032;-71
2022/04/18 01:22:18;;;;;;;18.07;11.33;;;10.60;52.20;;;;;;5095473;28;20460;-72
2022/04/18 01:30:14;;;;;;;19.60;11.87;;;10.40;52.50;;;;;;5080142;28;20455;-71
2022/04/18 01:32:39;;;;;;;17.27;10.67;;;10.40;52.60;;;;;;5075567;28;20025;-71
2022/04/18 01:35:05;;;;;;;18.90;11.50;;;10.30;52.70;;;;;;5075029;28;20469;-71
2022/04/18 01:37:31;;;;;;;19.03;11.33;;;10.30;52.80;;;;;;5074765;28;20020;-71
2022/04/18 01:39:57;;;;;;;17.40;10.30;;;10.30;53.00;;;;;;5056669;28;20036;-71
2022/04/18 01:42:22;;;;;;;16.97;10.97;;;10.20;53.00;;;;;;5040220;28;20024;-71
2022/04/18 01:44:48;;;;;;;18.03;10.97;;;10.20;53.20;;;;;;5073502;28;20039;-72
2022/04/18 01:47:14;;;;;;;18.00;10.50;;;10.20;53.40;;;;;;5074674;28;20456;-72
2022/04/18 01:49:40;;;;;;;19.60;11.20;;;10.10;53.40;;;;;;5075507;28;20032;-71
2022/04/18 01:52:06;;;;;;;18.17;11.70;;;10.10;53.70;;;;;;5039906;28;20392;-72
2022/04/18 01:54:32;;;;;;;16.33;10.00;;;10.10;53.80;;;;;;5073236;28;20499;-71
2022/04/18 01:56:57;;;;;;;15.80;9.83;;;10.00;53.80;;;;;;5039642;28;20029;-71
2022/04/18 01:59:23;;;;;;;17.47;11.37;;;10.00;53.90;;;;;;5057627;28;20043;-71
2022/04/18 02:01:49;;;;;;;17.47;10.50;;;10.00;54.10;;;;;;5074213;28;20449;-71
2022/04/18 02:04:15;;;;;;;18.80;10.47;;;9.90;54.00;;;;;;5039640;28;20396;-72
2022/04/18 02:06:41;;;;;;;19.43;11.07;;;9.90;54.00;;;;;;5056069;28;20025;-71
2022/04/18 02:09:06;;;;;;;17.83;9.90;;;9.80;54.10;;;;;;5056231;28;20389;-71
2022/04/18 02:11:32;;;;;;;18.90;10.53;;;10.00;54.30;;;;;;5060414;28;20026;-71
2022/04/18 02:13:58;;;;;;;16.17;9.90;;;9.80;54.30;;;;;;5076351;28;20414;-71
2022/04/18 02:16:24;;;;;;;17.10;9.70;;;9.80;54.40;;;;;;5075951;28;20094;-71
2022/04/18 02:18:50;;;;;;;16.17;9.93;;;9.80;54.50;;;;;;5094235;28;20081;-71
2022/04/18 02:21:17;;;;;;;17.97;10.63;;;9.80;54.60;;;;;;5094021;28;20028;-71
2022/04/18 02:23:42;;;;;;;18.53;11.07;;;9.70;54.60;;;;;;5094452;28;20078;-71
2022/04/18 02:26:09;;;;;;;16.13;10.53;;;9.70;54.60;;;;;;5091230;28;20473;-71
2022/04/18 02:28:35;;;;;;;17.30;11.00;;;9.60;54.60;;;;;;5065041;28;20081;-71
2022/04/18 02:31:02;;;;;;;15.53;10.17;;;9.60;54.80;;;;;;5056427;28;20028;-71
2022/04/18 02:33:27;;;;;;;17.90;11.03;;;9.60;55.00;;;;;;5073883;28;20051;-71
2022/04/18 02:35:53;;;;;;;15.97;10.50;;;9.50;55.70;;;;;;5055722;28;20473;-71
2022/04/18 02:38:19;;;;;;;16.93;10.50;;;9.50;55.20;;;;;;5073784;28;20046;-71
2022/04/18 02:40:45;;;;;;;16.40;10.97;;;9.40;55.20;;;;;;5084051;28;20050;-71
2022/04/18 02:43:12;;;;;;;16.37;10.60;;;9.50;55.40;;;;;;5093172;28;20537;-71
2022/04/18 02:45:38;;;;;;;15.50;10.07;;;9.40;55.40;;;;;;5058012;28;20077;-71
2022/04/18 02:48:04;;;;;;;16.40;10.03;;;9.30;55.50;;;;;;5073438;28;20017;-71
2022/04/18 02:50:30;;;;;;;19.10;10.60;;;9.30;55.70;;;;;;5073499;28;20028;-71
2022/04/18 02:52:56;;;;;;;18.17;11.13;;;9.30;55.80;;;;;;5073391;28;20063;-71
2022/04/18 02:55:25;;;;;;;19.40;11.00;;;9.30;56.00;;;;;;5073152;28;20491;-71
2022/04/18 02:57:51;;;;;;;18.97;10.37;;;9.20;56.20;;;;;;5075671;28;20025;-71
2022/04/18 03:00:17;;;;;;;17.90;11.30;;;9.20;56.30;;;;;;5093805;28;20093;-71
2022/04/18 03:02:42;;;;;;;16.93;10.77;;;9.10;56.40;;;;;;5075668;28;20028;-71
2022/04/18 03:05:09;;;;;;;17.60;11.10;;;9.20;56.70;;;;;;5075767;28;20062;-71
2022/04/18 03:07:35;;;;;;;21.23;11.37;;;9.10;56.80;;;;;;5073780;28;20040;-71
2022/04/18 03:10:01;;;;;;;18.27;11.40;;;9.10;56.90;;;;;;5073605;28;20385;-71
2022/04/18 03:12:27;;;;;;;16.73;11.43;;;9.00;56.90;;;;;;5044409;28;20154;-71
2022/04/18 03:14:52;;;;;;;17.03;10.93;;;9.10;57.10;;;;;;5075203;28;20024;-72
2022/04/18 03:17:18;;;;;;;16.10;10.50;;;9.00;57.30;;;;;;5075647;28;20024;-71
2022/04/18 03:19:44;;;;;;;17.00;11.03;;;9.00;57.30;;;;;;5093398;28;20028;-71
2022/04/18 03:22:09;;;;;;;16.23;10.73;;;9.00;57.50;;;;;;5093846;28;20154;-71
2022/04/18 03:24:35;;;;;;;17.83;11.03;;;8.90;57.60;;;;;;5093260;28;20058;-71
2022/04/18 03:27:02;;;;;;;17.73;10.97;;;8.90;57.80;;;;;;5076907;28;20032;-71
2022/04/18 03:29:28;;;;;;;19.40;11.87;;;8.90;57.70;;;;;;5055496;28;20028;-79
2022/04/18 03:31:54;;;;;;;16.63;11.07;;;8.90;57.90;;;;;;5073049;28;20447;-79
2022/04/18 03:34:20;;;;;;;18.33;11.33;;;8.80;58.00;;;;;;5055124;28;20029;-80
2022/04/18 03:42:13;;;;;;;16.95;10.35;;;8.70;58.30;;;;;;5058105;28;20039;-79
2022/04/18 03:44:43;;;;;;;19.37;11.30;;;8.70;58.40;;;;;;5072980;28;20111;-80
2022/04/18 03:47:09;;;;;;;18.47;11.37;;;8.70;58.60;;;;;;5073528;28;20059;-80
2022/04/18 03:49:35;;;;;;;18.47;11.43;;;8.60;59.30;;;;;;5093276;28;20024;-80
2022/04/18 03:52:01;;;;;;;18.67;12.93;;;8.60;58.80;;;;;;5093009;28;20532;-79
2022/04/18 03:54:26;;;;;;;19.90;11.43;;;8.60;59.00;;;;;;5094246;28;20383;-80
2022/04/18 03:56:52;;;;;;;18.17;11.63;;;8.50;59.10;;;;;;5062149;28;20634;-80
2022/04/18 03:59:18;;;;;;;20.00;12.33;;;8.50;59.30;;;;;;5097056;28;20111;-80
2022/04/18 04:01:44;;;;;;;21.83;13.27;;;8.50;59.20;;;;;;5097134;28;20093;-80
2022/04/18 04:04:09;;;;;;;19.47;12.87;;;8.40;59.40;;;;;;5096842;28;20119;-80
2022/04/18 04:06:35;;;;;;;18.40;11.40;;;8.40;59.40;;;;;;5096769;28;20035;-80
2022/04/18 04:09:00;;;;;;;20.90;12.10;;;8.40;59.60;;;;;;5097112;28;20024;-80
2022/04/18 04:11:26;;;;;;;20.73;12.40;;;8.40;59.70;;;;;;5095971;28;20399;-80
2022/04/18 04:13:52;;;;;;;17.87;12.27;;;8.30;60.00;;;;;;5076282;28;20021;-80
2022/04/18 04:16:18;;;;;;;23.30;13.00;;;8.30;59.90;;;;;;5074858;28;20044;-80
2022/04/18 04:18:44;;;;;;;20.00;13.37;;;8.30;60.50;;;;;;5076221;28;20033;-80
2022/04/18 04:21:10;;;;;;;19.63;12.07;;;8.40;60.10;;;;;;5076093;28;20059;-79
2022/04/18 04:23:35;;;;;;;19.70;12.53;;;8.30;60.10;;;;;;5058431;28;20362;-80
2022/04/18 04:26:01;;;;;;;18.97;12.07;;;8.30;60.10;;;;;;5072212;28;20058;-79
2022/04/18 04:28:27;;;;;;;21.80;12.17;;;8.30;60.10;;;;;;5078257;28;20035;-79
2022/04/18 04:30:52;;;;;;;22.10;12.80;;;8.20;60.70;;;;;;5073480;28;20511;-79
2022/04/18 04:33:18;;;;;;;19.80;11.73;;;8.20;60.50;;;;;;5095596;28;20033;-80
2022/04/18 04:35:43;;;;;;;18.97;11.57;;;8.20;60.40;;;;;;5086741;28;20384;-80
2022/04/18 04:38:10;;;;;;;20.80;12.63;;;8.20;61.00;;;;;;5078261;28;20038;-79
2022/04/18 04:40:36;;;;;;;19.23;12.10;;;8.20;60.70;;;;;;5082892;28;20527;-80
2022/04/18 04:43:02;;;;;;;20.40;12.37;;;8.20;60.80;;;;;;5075505;28;20123;-79
2022/04/18 04:45:27;;;;;;;18.50;11.33;;;8.10;60.70;;;;;;5057749;28;20025;-80
2022/04/18 04:47:53;;;;;;;16.57;10.90;;;8.20;60.70;;;;;;5075513;28;20029;-80
2022/04/18 04:50:19;;;;;;;19.67;11.50;;;8.10;60.60;;;;;;5057887;28;20029;-80
2022/04/18 04:52:44;;;;;;;18.80;11.73;;;8.10;61.40;;;;;;5075576;28;20032;-79
2022/04/18 04:55:11;;;;;;;18.37;11.57;;;8.20;61.00;;;;;;5064804;28;20039;-79
2022/04/18 04:57:37;;;;;;;18.60;11.17;;;8.20;61.10;;;;;;5095853;28;20101;-80
2022/04/18 05:00:04;;;;;;;19.83;11.63;;;8.10;60.90;;;;;;5077795;28;20496;-79
2022/04/18 05:02:29;;;;;;;17.23;11.80;;;8.10;60.90;;;;;;5060729;28;20028;-79
2022/04/18 05:04:55;;;;;;;22.97;12.03;;;8.20;61.50;;;;;;5095494;28;20114;-79
2022/04/18 05:07:20;;;;;;;16.27;10.33;;;8.30;61.30;;;;;;5094896;28;20032;-79
2022/04/18 05:09:47;;;;;;;18.80;11.37;;;8.10;61.20;;;;;;5077260;28;20543;-79
2022/04/18 05:12:12;;;;;;;20.17;11.77;;;8.10;61.10;;;;;;5060775;28;20025;-79
2022/04/18 05:14:38;;;;;;;20.00;11.40;;;8.10;61.30;;;;;;5077075;28;20029;-79
2022/04/18 05:17:04;;;;;;;16.50;10.47;;;8.10;61.30;;;;;;5077209;28;20081;-79
2022/04/18 05:19:29;;;;;;;20.97;11.50;;;8.10;61.30;;;;;;5077701;28;20124;-79
2022/04/18 05:21:55;;;;;;;22.77;11.97;;;8.10;61.80;;;;;;5095170;28;20040;-80
2022/04/18 05:24:20;;;;;;;16.93;11.13;;;8.20;61.60;;;;;;5070877;28;20038;-80
2022/04/18 05:26:46;;;;;;;20.23;11.43;;;8.20;61.60;;;;;;5074900;28;20481;-79
2022/04/18 05:29:12;;;;;;;20.80;11.13;;;8.20;61.50;;;;;;5075022;28;20032;-80
2022/04/18 05:31:38;;;;;;;19.90;11.67;;;8.20;61.60;;;;;;5074788;28;20075;-81
2022/04/18 05:34:04;;;;;;;16.27;11.30;;;8.30;61.50;;;;;;5056901;28;20482;-80
2022/04/18 05:36:29;;;;;;;17.93;10.83;;;8.30;61.50;;;;;;5074870;28;20036;-80
2022/04/18 05:38:55;;;;;;;18.30;11.20;;;8.30;61.40;;;;;;5070334;28;20032;-80
2022/04/18 05:41:21;;;;;;;20.03;11.70;;;8.30;61.50;;;;;;5076778;28;20395;-80
2022/04/18 05:43:49;;;;;;;16.90;10.87;;;8.40;61.40;;;;;;5090739;28;20034;-80
2022/04/18 05:46:15;;;;;;;17.83;10.53;;;8.40;61.50;;;;;;5074643;28;20037;-80
2022/04/18 05:48:41;;;;;;;15.57;10.27;;;8.40;61.50;;;;;;5074611;28;20036;-80
2022/04/18 05:51:07;;;;;;;17.10;10.70;;;8.50;61.60;;;;;;5056823;28;20028;-79
2022/04/18 05:53:33;;;;;;;20.83;10.93;;;8.50;61.50;;;;;;5056678;28;20033;-80
2022/04/18 05:55:58;;;;;;;19.30;10.37;;;8.50;61.50;;;;;;5074547;28;20024;-80
2022/04/18 05:58:24;;;;;;;18.13;10.50;;;8.60;61.30;;;;;;5056669;28;20032;-80
2022/04/18 06:00:50;;;;;;;15.20;9.70;;;8.60;61.10;;;;;;5074690;28;20020;-79
2022/04/18 06:03:15;;;;;;;16.30;9.13;;;8.70;61.10;;;;;;5075929;28;20031;-80
2022/04/18 06:05:41;;;;;;;15.43;8.90;;;8.70;60.90;;;;;;5076364;28;20024;-80
2022/04/18 06:08:07;;;;;;;14.50;8.43;;;8.70;60.80;;;;;;5076369;28;20028;-80
2022/04/18 06:10:33;;;;;;;15.70;8.33;;;8.80;60.70;;;;;;5091797;28;20388;-80
2022/04/18 06:12:59;;;;;;;14.40;7.40;;;8.80;60.40;;;;;;5075696;28;20388;-80
2022/04/18 06:15:25;;;;;;;11.70;7.07;;;8.80;60.70;;;;;;5093356;28;20052;-80
2022/04/18 06:17:50;;;;;;;10.43;6.60;;;8.90;60.00;;;;;;5068634;28;20043;-80
2022/04/18 06:20:16;;;;;;;13.73;7.33;;;8.90;59.80;;;;;;5066298;28;20032;-80
2022/04/18 06:22:42;;;;;;;11.70;6.60;;;9.00;59.70;;;;;;5094023;28;20026;-81
2022/04/18 06:25:07;;;;;;;14.40;7.47;;;9.10;59.60;;;;;;5075778;28;20440;-79
2022/04/18 06:27:33;;;;;;;12.33;6.60;;;9.10;59.50;;;;;;5075447;28;20131;-80
2022/04/18 06:29:59;;;;;;;12.30;7.40;;;9.10;59.40;;;;;;5093888;28;20059;-80
2022/04/18 06:32:25;;;;;;;14.93;7.27;;;9.20;59.40;;;;;;5094064;28;20024;-80
2022/04/18 06:34:51;;;;;;;11.13;6.37;;;9.20;59.20;;;;;;5072268;28;20028;-80
2022/04/18 06:37:16;;;;;;;11.20;6.77;;;9.30;59.10;;;;;;5093936;28;20024;-80
2022/04/18 06:39:43;;;;;;;15.13;7.17;;;9.30;59.00;;;;;;5082187;28;20069;-80
2022/04/18 06:42:09;;;;;;;12.90;7.27;;;9.40;59.00;;;;;;5073799;28;20435;-80
2022/04/18 06:44:35;;;;;;;13.03;7.33;;;9.40;58.90;;;;;;5073788;28;20111;-79
2022/04/18 06:47:00;;;;;;;11.30;6.20;;;9.50;58.90;;;;;;5075265;28;20127;-80
2022/04/18 06:49:26;;;;;;;10.80;6.33;;;9.50;58.80;;;;;;5058634;28;20031;-81
2022/04/18 06:51:51;;;;;;;10.90;6.00;;;9.60;59.40;;;;;;5093673;28;20054;-80
2022/04/18 06:54:17;;;;;;;11.77;6.33;;;9.60;58.70;;;;;;5093632;28;20403;-80
2022/04/18 06:57:01;;;;;;;9.87;5.50;;;9.60;58.60;;;;;;5042097;28;20020;-80
2022/04/18 06:59:31;;;;;;;9.52;5.97;;;9.70;58.70;;;;;;5076298;28;20065;-79
2022/04/18 07:01:57;;;;;;;10.27;5.73;;;9.70;59.20;;;;;;5068214;28;20507;-81
2022/04/18 07:04:23;;;;;;;9.70;5.00;;;9.80;58.60;;;;;;5073946;28;20032;-80
2022/04/18 07:06:49;;;;;;;12.20;5.50;;;9.90;58.50;;;;;;5075065;28;20036;-80
2022/04/18 07:09:14;;;;;;;9.00;4.83;;;9.90;58.50;;;;;;5093112;28;20118;-80
2022/04/18 07:11:42;;;;;;;10.03;4.73;;;9.90;58.30;;;;;;5058186;28;20028;-81
2022/04/18 07:14:08;;;;;;;9.53;4.87;;;10.00;58.30;;;;;;5078271;28;20485;-79
2022/04/18 07:16:34;;;;;;;8.33;4.70;;;10.10;58.10;;;;;;5072900;28;20084;-80
2022/04/18 07:19:00;;;;;;;8.80;5.50;;;10.20;58.00;;;;;;5073064;28;20032;-80
2022/04/18 07:21:26;;;;;;;9.37;4.27;;;10.20;58.00;;;;;;5055450;28;20033;-82
2022/04/18 07:23:52;;;;;;;8.53;4.30;;;10.30;58.00;;;;;;5073059;28;20483;-80
2022/04/18 07:26:19;;;;;;;7.83;3.70;;;10.40;58.70;;;;;;5062274;28;20063;-80
2022/04/18 07:28:46;;;;;;;7.83;3.67;;;10.40;57.90;;;;;;5068104;28;20032;-81
2022/04/18 07:31:11;;;;;;;8.17;4.03;;;10.50;57.80;;;;;;5077205;28;20028;-80
2022/04/18 07:33:37;;;;;;;8.77;3.40;;;10.50;57.40;;;;;;5094086;28;20120;-81
2022/04/18 07:36:03;;;;;;;6.37;3.27;;;10.60;57.20;;;;;;5079352;28;20059;-80
2022/04/18 07:41:14;;;;;;;5.90;2.73;;;10.80;57.10;;;;;;5080994;28;20032;-81
2022/04/18 07:43:41;;;;;;;9.57;2.53;;;10.80;57.10;;;;;;5042287;28;20025;-80
2022/04/18 07:46:06;;;;;;;8.63;3.10;;;10.90;57.10;;;;;;5071494;28;20369;-81
2022/04/18 07:48:33;;;;;;;6.23;3.17;;;11.00;57.10;;;;;;5063094;28;20043;-81
2022/04/18 07:53:43;;;;;;;5.20;2.00;;;11.20;56.90;;;;;;5077166;28;20063;-81
2022/04/18 07:56:09;;;;;;;5.07;2.22;;;11.20;56.50;;;;;;5058714;28;20056;-81
2022/04/18 07:58:35;;;;;;;5.03;1.80;;;11.40;56.40;;;;;;5058589;28;20056;-80
2022/04/18 08:01:01;;;;;;;7.22;1.90;;;11.40;56.20;;;;;;5095068;28;20476;-81
2022/04/18 08:03:26;;;;;;;5.00;2.22;;;11.50;56.20;;;;;;5094096;28;20086;-80
2022/04/18 08:05:56;;;;;;;4.50;2.15;;;11.60;56.20;;;;;;5060300;28;20119;-80
2022/04/18 08:08:22;;;;;;;9.13;2.55;;;11.70;56.20;;;;;;5075364;28;20024;-80
2022/04/18 08:10:47;;;;;;;5.07;2.15;;;11.70;56.00;;;;;;5096572;28;20040;-80
2022/04/18 08:13:13;;;;;;;4.65;1.95;;;11.80;55.90;;;;;;5096713;28;20039;-80
2022/04/18 08:15:39;;;;;;;3.53;1.60;;;11.90;56.00;;;;;;5096660;28;20113;-80
2022/04/18 08:18:05;;;;;;;4.20;1.67;;;12.00;56.00;;;;;;5078412;28;20031;-80
2022/04/18 08:20:30;;;;;;;5.20;1.60;;;12.00;56.00;;;;;;5078376;28;20106;-80
2022/04/18 08:22:56;;;;;;;4.63;1.75;;;12.30;56.10;;;;;;5087897;28;20078;-81
2022/04/18 08:25:22;;;;;;;4.78;1.77;;;12.30;55.80;;;;;;5078496;28;20511;-81
2022/04/18 08:27:47;;;;;;;3.53;1.33;;;12.40;55.60;;;;;;5096440;28;20119;-80
2022/04/18 08:30:13;;;;;;;3.92;1.60;;;12.50;55.00;;;;;;5078109;28;20034;-80
2022/04/18 08:32:40;;;;;;;3.70;1.40;;;12.60;54.50;;;;;;5078113;28;20054;-80
2022/04/18 08:35:06;;;;;;;4.78;1.67;;;12.70;54.30;;;;;;5078380;28;20039;-81
2022/04/18 08:37:33;;;;;;;3.38;1.35;;;12.70;54.00;;;;;;5096379;28;20027;-81
2022/04/18 08:39:59;;;;;;;4.10;1.60;;;12.90;53.90;;;;;;5096373;28;20028;-81
2022/04/18 08:42:25;;;;;;;4.13;1.52;;;13.00;53.80;;;;;;5076914;28;20408;-80
2022/04/18 08:44:52;;;;;;;4.18;1.70;;;13.00;53.50;;;;;;5096035;28;20032;-79
2022/04/18 08:52:50;;;;;;;3.92;1.00;;;13.40;53.20;;;;;;5081106;28;20400;-80
2022/04/18 08:55:20;;;;;;;4.00;1.67;;;13.50;52.80;;;;;;5095905;28;20534;-80
2022/04/18 08:57:45;;;;;;;3.13;1.42;;;13.60;52.60;;;;;;5073721;28;20028;-80
2022/04/18 09:00:12;;;;;;;5.40;1.50;;;13.70;52.50;;;;;;5077290;28;20047;-81
2022/04/18 09:02:39;;;;;;;3.88;1.30;;;13.80;52.10;;;;;;5077354;28;20131;-80
2022/04/18 09:05:10;;;;;;;4.35;1.48;;;14.00;52.10;;;;;;5093336;28;20495;-81
2022/04/18 09:07:36;;;;;;;5.45;1.35;;;14.10;52.10;;;;;;5075695;28;20041;-80
2022/04/18 09:10:02;;;;;;;3.60;1.27;;;14.20;52.00;;;;;;5057584;28;20028;-80
2022/04/18 09:12:29;;;;;;;5.32;1.50;;;14.30;51.70;;;;;;5087851;28;20040;-80
2022/04/18 09:14:55;;;;;;;4.40;1.50;;;14.40;51.40;;;;;;5094981;28;20040;-81
2022/04/18 09:17:35;;;;;;;3.13;1.35;;;14.50;51.90;;;;;;5095007;28;20024;-80
2022/04/18 09:20:08;;;;;;;4.75;1.52;;;14.70;51.20;;;;;;5095333;28;20090;-81
2022/04/18 09:22:44;;;;;;;6.57;1.40;;;14.80;50.60;;;;;;5095266;28;20035;-81
2022/04/18 09:25:17;;;;;;;4.72;1.70;;;14.90;50.40;;;;;;5095399;28;20032;-81
2022/04/18 09:27:55;;;;;;;4.72;1.83;;;15.10;50.30;;;;;;5095370;28;20085;-81
2022/04/18 09:30:21;;;;;;;3.50;1.13;;;15.20;49.90;;;;;;5094822;28;20388;-81
2022/04/18 09:33:01;;;;;;;3.38;1.52;;;15.30;49.90;;;;;;5094889;28;20020;-81
2022/04/18 09:35:28;;;;;;;2.83;1.30;;;15.40;49.70;;;;;;5101637;28;20036;-80
2022/04/18 09:38:00;;;;;;;4.45;1.25;;;15.60;49.70;;;;;;5094820;28;20455;-81
2022/04/18 09:40:26;;;;;;;6.57;1.80;;;15.60;49.60;;;;;;5076721;28;20028;-80
2022/04/18 09:42:53;;;;;;;4.97;1.35;;;15.80;49.50;;;;;;5086216;28;20092;-81
2022/04/18 09:45:19;;;;;;;3.17;1.45;;;15.90;49.10;;;;;;5094964;28;20056;-79
2022/04/18 09:48:01;;;;;;;5.05;1.98;;;16.00;48.60;;;;;;5094723;28;20070;-81
2022/04/18 09:53:20;;;;;;;4.22;1.67;;;16.20;48.30;;;;;;5094484;28;20490;-78
2022/04/18 09:55:47;;;;;;;3.05;1.17;;;16.30;48.20;;;;;;5069848;28;20408;-78
2022/04/18 09:58:13;;;;;;;5.55;1.33;;;16.30;48.20;;;;;;5082869;28;20039;-77
2022/04/18 10:00:39;;;;;;;4.32;1.42;;;16.40;48.10;;;;;;5094547;28;20040;-81
2022/04/18 10:03:06;;;;;;;3.60;1.35;;;16.40;48.00;;;;;;5056862;28;20063;-82
2022/04/18 10:05:33;;;;;;;4.85;1.45;;;16.50;48.10;;;;;;5074123;28;20036;-82
2022/04/18 10:08:03;;;;;;;2.75;1.30;;;16.60;48.50;;;;;;5074030;28;20032;-81
2022/04/18 10:10:31;;;;;;;3.75;1.27;;;16.70;47.60;;;;;;5074151;28;20145;-81
2022/04/18 10:12:57;;;;;;;3.22;1.40;;;16.80;47.10;;;;;;5073960;28;20100;-81
2022/04/18 10:15:23;;;;;;;2.50;1.20;;;16.90;46.60;;;;;;5073712;28;20123;-81
2022/04/18 10:17:50;;;;;;;3.90;1.13;;;17.10;47.00;;;;;;5068291;28;20028;-81
2022/04/18 10:21:00;;;;;;;3.35;1.38;;;17.20;46.20;;;;;;5076124;28;20032;-80
2022/04/18 10:23:45;;;;;;;6.60;1.17;;;17.40;45.60;;;;;;5012030;28;20564;-82
2022/04/18 10:26:33;;;;;;;4.45;1.73;;;17.70;45.10;;;;;;4985523;28;20498;-82
2022/04/18 10:29:37;;;;;;;3.13;1.23;;;18.00;44.80;;;;;;5040608;28;20033;-82
2022/04/18 10:32:07;;;;;;;4.53;1.13;;;18.30;44.10;;;;;;5073751;28;20047;-81
2022/04/18 10:34:35;;;;;;;3.67;1.20;;;18.50;44.10;;;;;;5077558;28;20492;-81
2022/04/18 10:37:02;;;;;;;4.15;1.50;;;18.70;43.70;;;;;;5056193;28;20024;-81
2022/04/18 10:39:38;;;;;;;3.83;1.55;;;19.00;43.20;;;;;;5077797;28;20025;-80
2022/04/18 10:42:35;;;;;;;4.03;1.63;;;19.20;42.60;;;;;;5039256;28;20036;-80
2022/04/18 10:45:17;;;;;;;2.67;1.27;;;19.40;42.00;;;;;;5073693;28;20025;-80
2022/04/18 10:48:05;;;;;;;3.13;1.00;;;19.70;42.10;;;;;;5079484;28;20396;-79
2022/04/18 10:50:43;;;;;;;3.13;1.20;;;20.00;41.70;;;;;;5094234;28;20039;-78
2022/04/18 10:53:13;;;;;;;3.58;1.20;;;20.30;41.50;;;;;;5074183;28;20529;-81
2022/04/18 10:55:51;;;;;;;3.03;1.17;;;20.50;41.30;;;;;;5059294;28;20020;-80
2022/04/18 10:58:21;;;;;;;3.20;1.15;;;20.80;40.90;;;;;;5074676;28;20047;-81
2022/04/18 11:01:01;;;;;;;3.13;1.25;;;21.00;40.50;;;;;;5095666;28;20499;-82
2022/04/18 11:03:43;;;;;;;3.70;1.30;;;21.20;39.70;;;;;;5075446;28;20069;-84
2022/04/18 11:06:11;;;;;;;3.03;1.50;;;21.40;39.60;;;;;;5093463;28;20513;-80
2022/04/18 11:08:38;;;;;;;3.65;1.20;;;21.60;40.20;;;;;;5093467;28;20047;-83
2022/04/18 11:11:06;;;;;;;2.22;1.13;;;21.80;39.20;;;;;;5075557;28;20558;-80
2022/04/18 11:13:33;;;;;;;3.10;1.05;;;22.10;38.90;;;;;;5093522;28;20070;-82
2022/04/18 11:16:25;;;;;;;3.28;1.10;;;22.30;38.20;;;;;;5093477;28;20044;-83
2022/04/18 11:19:23;;;;;;;3.42;1.50;;;22.60;37.20;;;;;;5054938;28;20058;-81
2022/04/18 11:22:01;;;;;;;3.38;1.08;;;22.80;36.50;;;;;;5056537;28;20029;-83
2022/04/18 11:24:43;;;;;;;2.33;1.00;;;23.10;36.60;;;;;;5075265;28;20039;-81
2022/04/18 11:27:17;;;;;;;2.10;1.00;;;23.40;35.80;;;;;;5081590;28;20031;-82
2022/04/18 11:29:45;;;;;;;2.70;1.27;;;23.60;35.50;;;;;;5069328;28;20037;-83
2022/04/18 11:32:16;;;;;;;2.95;1.00;;;23.70;35.00;;;;;;5073161;28;20099;-81
2022/04/18 11:34:47;;;;;;;4.10;1.08;;;23.90;34.40;;;;;;5055432;28;20033;-81
2022/04/18 11:37:34;;;;;;;2.38;0.90;;;24.10;34.00;;;;;;5073142;28;20023;-79
2022/04/18 11:40:03;;;;;;;2.58;1.17;;;24.40;33.70;;;;;;5060682;28;20094;-82
2022/04/18 11:42:30;;;;;;;3.38;1.10;;;24.50;33.90;;;;;;5092586;28;20024;-82
2022/04/18 11:44:59;;;;;;;3.63;1.10;;;24.50;33.80;;;;;;5076398;28;20042;-84
2022/04/18 11:47:30;;;;;;;4.22;1.08;;;24.70;33.80;;;;;;5102252;28;20028;-80
2022/04/18 11:50:03;;;;;;;3.17;1.23;;;24.80;33.60;;;;;;5093022;28;20476;-79
2022/04/18 11:52:31;;;;;;;2.13;0.95;;;25.00;33.60;;;;;;5093040;28;20020;-79
2022/04/18 11:55:18;;;;;;;2.85;1.20;;;25.20;33.60;;;;;;5093171;28;20029;-81
2022/04/18 11:57:46;;;;;;;3.63;0.90;;;25.50;32.90;;;;;;5075552;28;20525;-81
2022/04/18 12:08:32;;;;;;;3.33;1.10;;;26.20;32.90;;;;;;5093186;28;20067;-73
2022/04/18 12:10:58;;;;;;;2.50;1.10;;;26.40;32.10;;;;;;5091003;28;20046;-75
2022/04/18 12:13:23;;;;;;;1.90;1.17;;;26.60;31.60;;;;;;5092876;28;20036;-75
2022/04/18 12:15:49;;;;;;;3.83;1.20;;;26.80;31.30;;;;;;5093455;28;20076;-76
2022/04/18 12:18:17;;;;;;;3.08;1.45;;;27.00;31.10;;;;;;5079461;28;20151;-76
2022/04/18 12:21:02;;;;;;;2.75;1.15;;;27.20;31.30;;;;;;5076522;28;20017;-75
2022/04/18 12:23:27;;;;;;;3.95;1.40;;;27.40;31.00;;;;;;5058328;28;20016;-76
2022/04/18 12:25:55;;;;;;;2.85;1.20;;;27.60;31.30;;;;;;5076320;28;20040;-75
2022/04/18 12:28:23;;;;;;;2.10;1.05;;;27.80;31.30;;;;;;5078721;28;20107;-76
2022/04/18 12:30:53;;;;;;;2.70;1.10;;;28.00;31.00;;;;;;5096285;28;20028;-76
2022/04/18 12:33:30;;;;;;;2.72;1.10;;;28.30;30.60;;;;;;5078199;28;20495;-76
2022/04/18 12:35:57;;;;;;;3.92;1.30;;;28.50;30.50;;;;;;5096511;28;20472;-76
2022/04/18 12:38:36;;;;;;;2.30;1.15;;;28.70;30.50;;;;;;5095728;28;20024;-76
2022/04/18 12:41:03;;;;;;;2.47;1.10;;;28.70;30.10;;;;;;5096063;28;20035;-76
2022/04/18 12:43:34;;;;;;;2.33;0.98;;;28.80;30.40;;;;;;5081291;28;20032;-76
2022/04/18 12:46:00;;;;;;;2.47;1.13;;;29.00;30.10;;;;;;5057886;28;20028;-76
2022/04/18 12:48:28;;;;;;;3.08;1.30;;;29.20;30.00;;;;;;5057707;28;20027;-76
2022/04/18 12:50:56;;;;;;;3.40;1.17;;;29.30;29.70;;;;;;5057621;28;20025;-75
2022/04/18 12:53:42;;;;;;;2.90;1.00;;;29.50;29.70;;;;;;5075773;28;20033;-76
2022/04/18 12:56:08;;;;;;;3.05;1.20;;;29.60;29.60;;;;;;5075462;28;20059;-76
2022/04/18 12:58:40;;;;;;;1.95;0.90;;;29.80;29.50;;;;;;5041037;28;20063;-75
2022/04/18 13:01:08;;;;;;;1.90;0.93;;;29.90;29.30;;;;;;5058460;28;20380;-74
2022/04/18 13:03:44;;;;;;;2.50;1.10;;;30.00;29.00;;;;;;5075547;28;20461;-74
2022/04/18 13:06:11;;;;;;;2.53;1.00;;;30.10;28.50;;;;;;5072135;28;20450;-76
2022/04/18 13:08:40;;;;;;;2.13;0.93;;;30.20;28.70;;;;;;5078009;28;20429;-76
2022/04/18 13:11:07;;;;;;;1.52;0.70;;;30.40;28.70;;;;;;5092487;28;20024;-78
2022/04/18 13:13:33;;;;;;;2.60;0.85;;;30.60;28.80;;;;;;5087203;28;20089;-76
2022/04/18 13:16:19;;;;;;;2.20;0.90;;;30.80;28.60;;;;;;5056404;28;20045;-76
2022/04/18 13:18:44;;;;;;;2.92;1.00;;;31.00;28.40;;;;;;5033527;28;20067;-76